Time;durP1;ratioP1;P1;durP2;ratioP2;P2;SDS_P1;SDS_P2;PMS_P1;PMS_P2;Temp;Humidity;BMP_temperature;BMP_pressure;BME280_temperature;BME280_humidity;BME280_pressure;Samples;Min_cycle;Max_cycle;Signal;HPM_P1;HPM_P2
2021/12/22 00:00:16;;;;;;;34.20;6.37;;;0.00;94.30;;;;;;5014902;28;20210;-67
2021/12/22 00:02:48;;;;;;;35.40;6.50;;;0.20;95.10;;;;;;5005510;28;20456;-67
2021/12/22 00:05:19;;;;;;;43.37;7.73;;;0.20;90.70;;;;;;5005592;28;20584;-67
2021/12/22 00:07:45;;;;;;;22.13;4.23;;;-0.20;96.70;;;;;;5003259;28;20553;-67
2021/12/22 00:10:12;;;;;;;40.33;7.27;;;0.00;99.90;;;;;;5014518;28;20206;-66
2021/12/22 00:12:37;;;;;;;33.17;6.13;;;-0.10;99.90;;;;;;5001917;28;20212;-67
2021/12/22 00:15:04;;;;;;;33.93;6.20;;;-0.10;99.90;;;;;;5017779;28;20272;-66
2021/12/22 00:17:30;;;;;;;25.20;4.87;;;0.10;99.90;;;;;;5019742;28;20196;-67
2021/12/22 00:19:56;;;;;;;25.50;4.77;;;0.00;99.90;;;;;;5009489;28;20212;-67
2021/12/22 00:22:22;;;;;;;47.33;8.33;;;;;;;;;;5021847;28;20272;-67
2021/12/22 00:24:48;;;;;;;29.03;5.37;;;-0.10;99.90;;;;;;5018933;28;20193;-67
2021/12/22 00:27:14;;;;;;;28.50;5.30;;;-0.20;99.90;;;;;;5020391;28;20184;-66
2021/12/22 00:29:41;;;;;;;34.07;6.27;;;-0.30;99.90;;;;;;5016266;28;20216;-67
2021/12/22 00:32:10;;;;;;;41.03;7.40;;;-0.10;99.90;;;;;;5018572;28;20284;-67
2021/12/22 00:34:45;;;;;;;34.67;6.33;;;-0.10;99.90;;;;;;5019887;28;20268;-67
2021/12/22 00:37:11;;;;;;;30.07;5.67;;;0.30;99.90;;;;;;5018077;28;20176;-67
2021/12/22 00:39:37;;;;;;;24.83;4.67;;;0.20;99.90;;;;;;5015009;28;20212;-67
2021/12/22 00:42:03;;;;;;;27.10;5.00;;;0.80;99.90;;;;;;5021409;28;20238;-67
2021/12/22 00:44:29;;;;;;;31.33;5.83;;;0.20;99.90;;;;;;5017964;28;20662;-67
2021/12/22 00:46:54;;;;;;;38.63;7.10;;;-0.20;99.90;;;;;;5019012;28;20207;-67
2021/12/22 00:49:20;;;;;;;30.63;5.63;;;-0.10;99.90;;;;;;5021341;28;20220;-67
2021/12/22 00:51:45;;;;;;;42.13;7.43;;;0.20;99.90;;;;;;5015592;28;21736;-67
2021/12/22 00:54:11;;;;;;;27.83;5.23;;;-0.10;99.90;;;;;;5016672;28;20173;-67
2021/12/22 00:56:37;;;;;;;34.13;6.30;;;0.00;99.90;;;;;;5019113;28;20192;-67
2021/12/22 00:59:04;;;;;;;37.87;6.80;;;;;;;;;;5005847;28;20188;-67
2021/12/22 01:01:29;;;;;;;26.00;5.03;;;0.10;99.90;;;;;;5023598;28;20868;-67
2021/12/22 01:03:56;;;;;;;28.07;5.17;;;0.10;99.90;;;;;;4997776;28;20188;-67
2021/12/22 01:06:22;;;;;;;29.50;5.53;;;0.00;99.90;;;;;;5007756;28;20176;-67
2021/12/22 01:08:48;;;;;;;35.17;6.53;;;;;;;;;;5018152;28;20302;-67
2021/12/22 01:11:14;;;;;;;30.70;5.70;;;0.00;98.10;;;;;;5001256;28;20192;-67
2021/12/22 01:13:40;;;;;;;48.13;8.67;;;-0.10;99.90;;;;;;5002469;28;20217;-67
2021/12/22 01:16:06;;;;;;;29.07;5.43;;;-0.20;99.90;;;;;;5019750;28;20177;-67
2021/12/22 01:18:34;;;;;;;34.27;6.33;;;-0.10;99.90;;;;;;5017657;28;20192;-67
2021/12/22 01:21:13;;;;;;;29.90;5.57;;;0.20;97.70;;;;;;5017019;28;20310;-67
2021/12/22 01:24:41;;;;;;;36.27;6.70;;;-0.10;94.70;;;;;;5015171;28;20192;-67
2021/12/22 01:26:39;;;;;;;37.30;6.87;;;0.00;97.40;;;;;;5003938;28;21091;-67
2021/12/22 01:29:05;;;;;;;43.20;7.73;;;;;;;;;;5012766;28;20208;-67
2021/12/22 01:31:31;;;;;;;32.87;6.03;;;0.10;95.40;;;;;;5021670;28;20184;-67
2021/12/22 01:33:56;;;;;;;37.87;6.90;;;0.00;98.00;;;;;;5020182;28;20203;-66
2021/12/22 01:36:22;;;;;;;27.87;5.20;;;0.10;95.90;;;;;;5017191;28;20176;-67
2021/12/22 01:38:48;;;;;;;26.50;4.97;;;;;;;;;;5015941;28;20234;-67
2021/12/22 01:41:14;;;;;;;26.90;5.00;;;0.00;98.20;;;;;;5018925;28;20184;-67
2021/12/22 01:43:39;;;;;;;39.37;7.27;;;0.00;99.90;;;;;;5015576;28;20200;-67
2021/12/22 01:46:33;;;;;;;31.67;5.83;;;-0.10;95.80;;;;;;5021873;28;20658;-67
2021/12/22 01:49:10;;;;;;;19.60;3.80;;;0.00;97.60;;;;;;5020831;28;20722;-67
2021/12/22 01:51:40;;;;;;;36.33;6.63;;;0.10;97.70;;;;;;5021975;28;20191;-67
2021/12/22 01:54:23;;;;;;;36.40;6.70;;;0.00;98.50;;;;;;5000206;28;20184;-67
2021/12/22 01:56:51;;;;;;;33.70;6.23;;;0.10;99.20;;;;;;5018785;28;20295;-67
2021/12/22 01:59:17;;;;;;;30.33;5.77;;;0.00;99.20;;;;;;5016559;28;20240;-67
2021/12/22 02:01:43;;;;;;;20.57;4.10;;;0.00;96.70;;;;;;5019339;28;20259;-67
2021/12/22 02:04:11;;;;;;;25.93;5.13;;;0.10;99.80;;;;;;5016530;28;20267;-67
2021/12/22 02:06:39;;;;;;;28.47;5.37;;;0.10;99.90;;;;;;5018615;28;20196;-67
2021/12/22 02:09:05;;;;;;;23.03;4.37;;;;;;;;;;5001536;28;20228;-67
2021/12/22 02:11:31;;;;;;;22.03;4.30;;;0.10;94.70;;;;;;5017923;28;20775;-67
2021/12/22 02:14:01;;;;;;;33.67;6.27;;;0.10;91.80;;;;;;5015680;28;20212;-67
2021/12/22 02:16:31;;;;;;;34.83;6.50;;;0.00;99.80;;;;;;5004353;28;20601;-67
2021/12/22 02:18:59;;;;;;;28.90;5.37;;;0.40;95.80;;;;;;5005007;28;20203;-67
2021/12/22 02:21:29;;;;;;;46.30;8.50;;;0.00;96.10;;;;;;5013941;28;20271;-67
2021/12/22 02:23:55;;;;;;;31.53;5.93;;;0.10;98.40;;;;;;5017307;28;20194;-67
2021/12/22 02:26:28;;;;;;;36.90;6.90;;;0.10;97.70;;;;;;5014830;28;20744;-67
2021/12/22 02:29:00;;;;;;;27.80;5.27;;;;;;;;;;5015479;28;20296;-67
2021/12/22 02:31:27;;;;;;;32.40;6.07;;;0.10;98.10;;;;;;5015523;28;20673;-67
2021/12/22 02:33:53;;;;;;;35.20;6.57;;;0.10;99.90;;;;;;5013426;28;20676;-67
2021/12/22 02:38:57;;;;;;;24.10;4.67;;;0.20;95.90;;;;;;5016657;28;20200;-67
2021/12/22 02:41:27;;;;;;;19.50;3.87;;;0.00;98.80;;;;;;5016757;28;20188;-67
2021/12/22 02:43:55;;;;;;;41.87;7.67;;;-0.10;99.90;;;;;;5016343;28;20245;-67
2021/12/22 02:46:26;;;;;;;23.73;4.57;;;0.00;99.90;;;;;;5019903;28;20282;-67
2021/12/22 02:48:52;;;;;;;37.50;7.03;;;;;;;;;;5017312;28;20265;-67
2021/12/22 02:51:19;;;;;;;27.30;5.20;;;0.30;99.90;;;;;;5017631;28;20227;-67
2021/12/22 02:54:07;;;;;;;30.60;5.77;;;0.10;99.90;;;;;;5012251;28;20602;-67
2021/12/22 02:56:39;;;;;;;30.83;5.83;;;0.50;99.90;;;;;;5014940;28;20188;-67
2021/12/22 03:04:11;;;;;;;28.90;5.47;;;0.10;99.90;;;;;;5018197;28;20713;-67
2021/12/22 03:07:05;;;;;;;37.40;6.93;;;0.10;99.90;;;;;;5002110;28;22314;-67
2021/12/22 03:09:34;;;;;;;20.93;4.10;;;0.60;99.90;;;;;;5000053;28;20705;-67
2021/12/22 03:12:04;;;;;;;33.10;6.13;;;0.30;99.90;;;;;;4999464;28;20207;-67
2021/12/22 03:14:31;;;;;;;32.63;6.20;;;0.20;99.90;;;;;;5009324;28;20268;-67
2021/12/22 03:16:57;;;;;;;25.67;4.90;;;0.10;99.90;;;;;;5003134;28;20570;-67
2021/12/22 03:19:25;;;;;;;28.77;5.43;;;0.10;99.90;;;;;;5017937;28;20220;-67
2021/12/22 03:22:00;;;;;;;45.53;8.20;;;0.20;99.90;;;;;;5015887;28;20270;-67
2021/12/22 03:24:26;;;;;;;34.27;6.43;;;0.10;99.90;;;;;;5013420;28;20274;-67
2021/12/22 03:26:52;;;;;;;31.60;5.97;;;0.10;99.90;;;;;;5017538;28;20180;-66
2021/12/22 03:29:18;;;;;;;33.63;6.23;;;0.20;99.90;;;;;;5012682;28;20277;-67
2021/12/22 03:31:45;;;;;;;25.57;4.93;;;0.10;99.90;;;;;;4999517;28;20665;-67
2021/12/22 03:34:14;;;;;;;38.73;7.17;;;0.20;99.90;;;;;;5018072;28;20284;-67
2021/12/22 03:36:43;;;;;;;37.73;6.97;;;;;;;;;;5000048;28;20287;-67
2021/12/22 03:39:11;;;;;;;38.53;7.10;;;0.20;99.90;;;;;;4999341;28;20581;-67
2021/12/22 03:41:36;;;;;;;29.80;5.70;;;0.10;99.90;;;;;;5018040;28;20181;-68
2021/12/22 03:44:03;;;;;;;35.93;6.57;;;0.10;99.90;;;;;;5019582;28;20211;-67
2021/12/22 03:46:29;;;;;;;28.43;5.50;;;0.30;99.90;;;;;;4998202;28;20191;-67
2021/12/22 03:48:55;;;;;;;35.57;6.53;;;;;;;;;;5012419;28;20212;-67
2021/12/22 03:51:21;;;;;;;36.87;6.87;;;0.10;99.90;;;;;;5015226;28;20980;-67
2021/12/22 03:53:46;;;;;;;31.40;6.00;;;-0.10;99.90;;;;;;5010001;28;20268;-67
2021/12/22 03:56:12;;;;;;;31.97;6.00;;;-0.10;99.90;;;;;;4993893;28;20215;-67
2021/12/22 03:58:37;;;;;;;51.50;9.40;;;-0.10;99.90;;;;;;5012883;28;20287;-67
2021/12/22 04:01:04;;;;;;;27.90;5.23;;;-0.10;99.90;;;;;;4998413;28;20211;-67
2021/12/22 04:03:33;;;;;;;41.43;7.63;;;-0.10;99.90;;;;;;5016014;28;20283;-67
2021/12/22 04:05:59;;;;;;;28.60;5.43;;;0.10;99.90;;;;;;4996181;28;20204;-67
2021/12/22 04:08:25;;;;;;;34.00;6.23;;;0.10;99.90;;;;;;5014468;28;20228;-67
2021/12/22 04:10:51;;;;;;;23.63;4.57;;;0.50;99.90;;;;;;5015368;28;20208;-67
2021/12/22 04:13:18;;;;;;;41.53;7.47;;;-0.10;99.90;;;;;;5015372;28;20208;-67
2021/12/22 04:15:44;;;;;;;17.47;3.50;;;0.00;99.90;;;;;;5014517;28;20207;-67
2021/12/22 04:18:10;;;;;;;31.07;5.87;;;0.00;99.90;;;;;;5015547;28;20189;-67
2021/12/22 04:20:36;;;;;;;35.03;7.23;;;0.00;99.90;;;;;;4993986;23;20239;-73
2021/12/22 04:23:03;;;;;;;20.90;4.53;;;-0.10;99.90;;;;;;5017529;28;20246;-72
2021/12/22 04:25:29;;;;;;;50.37;9.97;;;0.30;99.90;;;;;;5009051;28;20189;-72
2021/12/22 04:28:07;;;;;;;23.90;5.23;;;0.10;99.90;;;;;;5008673;28;20191;-72
2021/12/22 04:30:39;;;;;;;18.90;4.40;;;0.10;99.90;;;;;;5012437;28;20207;-73
2021/12/22 04:33:05;;;;;;;17.50;4.10;;;1.10;99.90;;;;;;5009202;28;20554;-73
2021/12/22 04:35:31;;;;;;;32.63;6.77;;;-0.10;99.90;;;;;;5026410;28;20196;-72
2021/12/22 04:37:58;;;;;;;25.90;5.50;;;0.00;99.90;;;;;;5014880;28;20867;-72
2021/12/22 04:40:24;;;;;;;25.10;5.53;;;0.00;99.90;;;;;;5013865;28;20298;-73
2021/12/22 04:42:49;;;;;;;21.60;4.87;;;-0.20;99.90;;;;;;5012627;28;20286;-73
2021/12/22 04:45:16;;;;;;;16.43;4.00;;;0.00;99.90;;;;;;5014520;28;20263;-72
2021/12/22 04:47:42;;;;;;;23.87;5.30;;;0.00;99.90;;;;;;5021545;28;20191;-72
2021/12/22 04:50:13;;;;;;;34.90;7.23;;;-0.20;99.90;;;;;;5016862;28;20284;-72
2021/12/22 04:52:50;;;;;;;27.70;5.87;;;0.20;99.90;;;;;;5028450;28;20180;-73
2021/12/22 04:55:16;;;;;;;28.30;5.97;;;0.00;99.90;;;;;;5015206;28;20199;-72
2021/12/22 04:57:42;;;;;;;22.43;4.90;;;0.10;99.90;;;;;;5017306;28;20634;-72
2021/12/22 05:00:10;;;;;;;26.87;5.83;;;0.00;99.90;;;;;;5011964;28;20231;-72
2021/12/22 05:02:36;;;;;;;30.60;6.53;;;0.40;99.90;;;;;;5032128;28;20667;-73
2021/12/22 05:05:02;;;;;;;19.20;4.53;;;0.00;99.90;;;;;;5017248;28;20180;-72
2021/12/22 05:07:27;;;;;;;31.60;6.70;;;0.10;99.90;;;;;;5010826;28;20188;-72
2021/12/22 05:09:53;;;;;;;23.47;5.30;;;;;;;;;;5017779;28;20592;-72
2021/12/22 05:12:19;;;;;;;27.97;5.93;;;0.10;99.90;;;;;;5028563;28;20709;-72
2021/12/22 05:14:47;;;;;;;22.63;4.97;;;0.40;99.90;;;;;;5011455;28;20523;-72
2021/12/22 05:17:20;;;;;;;31.10;6.47;;;0.00;99.90;;;;;;5017501;28;20184;-72
2021/12/22 05:19:46;;;;;;;14.40;3.67;;;0.00;99.90;;;;;;5017509;28;20617;-72
2021/12/22 05:22:11;;;;;;;42.83;8.67;;;-0.10;99.90;;;;;;5015319;28;20208;-73
2021/12/22 05:24:37;;;;;;;26.00;5.60;;;0.00;99.90;;;;;;5015077;28;20258;-73
2021/12/22 05:27:03;;;;;;;20.03;4.53;;;-0.40;99.90;;;;;;5014082;28;20198;-73
2021/12/22 05:29:29;;;;;;;30.27;6.47;;;0.10;99.90;;;;;;5027498;28;20328;-73
2021/12/22 05:31:55;;;;;;;21.53;4.90;;;0.10;99.90;;;;;;5020738;28;20274;-73
2021/12/22 05:34:20;;;;;;;25.67;5.53;;;0.10;99.90;;;;;;5016651;28;20215;-73
2021/12/22 05:36:46;;;;;;;25.67;5.67;;;0.00;99.90;;;;;;5005954;28;20204;-73
2021/12/22 05:39:12;;;;;;;35.87;7.50;;;-0.30;99.90;;;;;;5010296;28;20195;-72
2021/12/22 05:41:37;;;;;;;18.97;4.43;;;-0.40;99.90;;;;;;5019408;28;20263;-73
2021/12/22 05:44:04;;;;;;;25.83;5.57;;;0.00;99.90;;;;;;5012508;28;20276;-72
2021/12/22 05:46:29;;;;;;;25.13;5.37;;;0.10;99.90;;;;;;5021662;28;20215;-72
2021/12/22 05:48:55;;;;;;;14.83;3.53;;;0.00;99.90;;;;;;5015864;28;20383;-72
2021/12/22 05:51:22;;;;;;;30.63;6.57;;;0.10;99.90;;;;;;5012411;28;20204;-73
2021/12/22 05:53:48;;;;;;;24.13;5.33;;;0.00;99.90;;;;;;5016512;28;20176;-73
2021/12/22 05:56:13;;;;;;;24.60;5.40;;;0.00;99.90;;;;;;5012071;28;20299;-73
2021/12/22 05:58:39;;;;;;;32.90;6.80;;;0.20;99.90;;;;;;5016479;28;20246;-72
2021/12/22 06:01:04;;;;;;;15.13;3.80;;;-0.10;99.90;;;;;;5013843;28;20590;-72
2021/12/22 06:03:30;;;;;;;27.33;6.07;;;0.00;99.90;;;;;;5015050;28;20322;-73
2021/12/22 06:05:56;;;;;;;25.23;5.47;;;0.00;99.90;;;;;;5016223;28;20187;-72
2021/12/22 06:08:21;;;;;;;28.17;6.03;;;0.00;99.90;;;;;;5013193;28;20212;-73
2021/12/22 06:10:47;;;;;;;21.63;4.83;;;-0.10;99.90;;;;;;5013712;28;20655;-73
2021/12/22 06:13:12;;;;;;;24.50;5.23;;;0.20;99.90;;;;;;5015325;28;20252;-73
2021/12/22 06:15:40;;;;;;;19.97;4.50;;;0.40;99.90;;;;;;5025701;28;20188;-72
2021/12/22 06:18:06;;;;;;;25.17;5.43;;;0.20;99.90;;;;;;5014388;28;20176;-73
2021/12/22 06:20:32;;;;;;;18.90;4.27;;;0.10;99.90;;;;;;5013205;28;20226;-73
2021/12/22 06:22:58;;;;;;;29.07;6.13;;;0.10;99.90;;;;;;5017459;28;20227;-72
2021/12/22 06:25:25;;;;;;;36.00;7.43;;;0.10;99.90;;;;;;5014318;28;21142;-73
2021/12/22 06:27:51;;;;;;;12.37;3.20;;;0.10;99.90;;;;;;5014897;28;20173;-73
2021/12/22 06:30:20;;;;;;;20.80;4.80;;;0.10;99.90;;;;;;5012272;28;20215;-73
2021/12/22 06:32:46;;;;;;;25.13;5.47;;;0.50;99.90;;;;;;5015743;28;20740;-73
2021/12/22 06:35:12;;;;;;;26.93;5.77;;;0.30;99.10;;;;;;5016778;28;20209;-72
2021/12/22 06:37:37;;;;;;;24.63;5.37;;;0.10;99.00;;;;;;5014270;28;20293;-71
2021/12/22 06:40:06;;;;;;;18.90;4.30;;;0.10;99.90;;;;;;5015207;28;20219;-73
2021/12/22 06:42:32;;;;;;;16.60;3.87;;;0.20;99.90;;;;;;5015895;28;20526;-72
2021/12/22 06:44:57;;;;;;;19.27;4.37;;;0.10;99.90;;;;;;5013419;28;20183;-72
2021/12/22 06:47:24;;;;;;;27.67;5.93;;;0.20;99.90;;;;;;5011176;28;20176;-72
2021/12/22 06:49:50;;;;;;;36.13;7.43;;;;;;;;;;5012624;28;20201;-72
2021/12/22 06:52:16;;;;;;;23.27;5.23;;;0.20;99.90;;;;;;5013202;28;20180;-72
2021/12/22 06:54:41;;;;;;;33.43;6.97;;;0.10;99.90;;;;;;5011037;28;20678;-73
2021/12/22 06:57:07;;;;;;;19.43;4.47;;;;;;;;;;5018303;28;20172;-72
2021/12/22 06:59:33;;;;;;;22.37;4.87;;;0.40;99.90;;;;;;5017921;28;20191;-72
2021/12/22 07:01:58;;;;;;;32.80;6.73;;;0.00;99.10;;;;;;5019242;28;20549;-73
2021/12/22 07:04:24;;;;;;;12.97;3.20;;;0.20;99.60;;;;;;5013394;28;20261;-72
2021/12/22 07:06:50;;;;;;;14.37;3.50;;;0.10;99.90;;;;;;5019398;28;20181;-73
2021/12/22 07:09:15;;;;;;;15.67;3.83;;;0.20;99.90;;;;;;5020093;28;20210;-73
2021/12/22 07:11:43;;;;;;;16.67;3.90;;;0.20;99.90;;;;;;5017331;28;20208;-73
2021/12/22 07:14:09;;;;;;;20.03;4.63;;;0.20;99.90;;;;;;5019908;28;20577;-73
2021/12/22 07:16:35;;;;;;;20.30;4.70;;;0.20;99.90;;;;;;5017699;28;20271;-72
2021/12/22 07:19:01;;;;;;;16.23;3.97;;;0.10;99.90;;;;;;5022672;28;20177;-73
2021/12/22 07:21:27;;;;;;;16.23;3.87;;;0.20;99.90;;;;;;5017129;28;20298;-73
2021/12/22 07:23:52;;;;;;;16.80;4.13;;;0.30;99.90;;;;;;5017966;28;20275;-72
2021/12/22 07:26:18;;;;;;;24.17;5.27;;;0.30;99.90;;;;;;5016559;28;20259;-73
2021/12/22 07:28:46;;;;;;;41.60;8.63;;;0.40;99.90;;;;;;5031205;28;20261;-72
2021/12/22 07:31:13;;;;;;;29.73;6.50;;;0.00;99.90;;;;;;5016125;28;20290;-72
2021/12/22 07:33:42;;;;;;;16.57;4.03;;;0.40;99.90;;;;;;5014989;28;20192;-71
2021/12/22 07:36:07;;;;;;;23.50;5.47;;;0.30;99.90;;;;;;5013784;28;20188;-74
2021/12/22 07:38:39;;;;;;;22.07;5.00;;;0.10;99.90;;;;;;5017548;28;20223;-74
2021/12/22 07:41:06;;;;;;;20.30;4.50;;;0.40;99.90;;;;;;5018732;28;20273;-73
2021/12/22 07:43:32;;;;;;;73.27;13.77;;;0.60;99.90;;;;;;5012481;28;20202;-72
2021/12/22 07:45:58;;;;;;;24.73;5.37;;;0.30;99.90;;;;;;5010017;28;20573;-72
2021/12/22 07:48:25;;;;;;;24.97;5.30;;;0.30;99.90;;;;;;5010923;28;20215;-73
2021/12/22 07:50:50;;;;;;;13.67;3.33;;;0.10;99.90;;;;;;5009515;28;20555;-73
2021/12/22 07:53:16;;;;;;;18.83;4.33;;;1.40;99.90;;;;;;5016062;28;20187;-73
2021/12/22 07:55:41;;;;;;;18.03;4.27;;;0.10;99.90;;;;;;5013976;28;20192;-73
2021/12/22 07:58:07;;;;;;;12.77;3.20;;;0.50;99.90;;;;;;5011959;28;20188;-73
2021/12/22 08:00:33;;;;;;;26.57;5.80;;;0.00;99.90;;;;;;5019562;28;20814;-74
2021/12/22 08:02:59;;;;;;;23.23;5.13;;;0.90;99.90;;;;;;5016952;28;20243;-74
2021/12/22 08:05:25;;;;;;;21.07;4.90;;;0.20;99.90;;;;;;5011955;28;20223;-74
2021/12/22 08:07:51;;;;;;;18.73;4.30;;;;;;;;;;5012266;28;20673;-73
2021/12/22 08:10:16;;;;;;;24.17;5.27;;;0.30;99.90;;;;;;5018115;28;20216;-74
2021/12/22 08:12:42;;;;;;;29.60;6.10;;;0.20;99.90;;;;;;5015119;28;20188;-74
2021/12/22 08:15:08;;;;;;;37.07;7.77;;;0.20;99.90;;;;;;5014823;28;20683;-74
2021/12/22 08:17:34;;;;;;;34.53;7.17;;;0.30;99.90;;;;;;5009991;28;20246;-65
2021/12/22 08:20:00;;;;;;;36.33;7.50;;;;;;;;;;5009817;28;20233;-66
2021/12/22 08:22:26;;;;;;;30.83;6.57;;;0.20;99.90;;;;;;5020312;28;20192;-66
2021/12/22 08:24:52;;;;;;;31.03;6.63;;;0.10;99.90;;;;;;5013532;28;20803;-66
2021/12/22 08:27:19;;;;;;;23.67;5.30;;;0.10;99.90;;;;;;5012943;28;20191;-65
2021/12/22 08:29:45;;;;;;;35.17;7.27;;;;;;;;;;5013626;28;20212;-65
2021/12/22 08:32:11;;;;;;;40.57;8.10;;;0.00;99.90;;;;;;5010646;28;20218;-66
2021/12/22 08:34:39;;;;;;;37.13;7.67;;;-0.10;99.90;;;;;;5015278;28;20181;-66
2021/12/22 08:39:51;;;;;;;30.37;6.60;;;0.10;99.90;;;;;;5016358;28;20635;-66
2021/12/22 08:42:17;;;;;;;25.63;5.67;;;-0.30;99.90;;;;;;5035336;28;20924;-66
2021/12/22 08:44:43;;;;;;;23.33;5.20;;;0.10;99.90;;;;;;5014279;28;20181;-65
2021/12/22 08:47:10;;;;;;;28.90;6.23;;;0.00;99.90;;;;;;5016792;28;20234;-66
2021/12/22 08:49:35;;;;;;;19.97;4.73;;;0.10;99.90;;;;;;5015820;28;20228;-66
2021/12/22 08:52:01;;;;;;;22.37;5.13;;;;;;;;;;5013000;28;20623;-66
2021/12/22 08:54:27;;;;;;;22.77;5.17;;;0.10;99.90;;;;;;5017881;28;20192;-66
2021/12/22 08:56:55;;;;;;;21.77;5.13;;;0.00;99.90;;;;;;5015074;28;20192;-65
2021/12/22 08:59:22;;;;;;;20.83;4.80;;;0.10;99.90;;;;;;5017157;28;20179;-65
2021/12/22 09:01:47;;;;;;;35.10;7.33;;;0.40;99.90;;;;;;5028828;28;20239;-65
2021/12/22 09:04:13;;;;;;;35.67;7.53;;;0.30;99.90;;;;;;5014812;28;20223;-65
2021/12/22 09:06:39;;;;;;;18.83;4.50;;;0.30;99.90;;;;;;5014626;28;20192;-65
2021/12/22 09:09:05;;;;;;;28.10;6.07;;;0.40;99.90;;;;;;5015753;28;20315;-66
2021/12/22 09:11:31;;;;;;;34.17;6.93;;;0.40;99.90;;;;;;5021583;28;20214;-66
2021/12/22 09:13:57;;;;;;;33.73;7.00;;;0.40;99.90;;;;;;5011956;28;20184;-66
2021/12/22 09:16:22;;;;;;;16.37;4.10;;;0.40;99.90;;;;;;5019643;28;20184;-66
2021/12/22 09:18:48;;;;;;;14.43;3.73;;;0.40;99.90;;;;;;5017891;28;20192;-66
2021/12/22 09:21:16;;;;;;;15.53;3.93;;;0.40;99.90;;;;;;5023795;28;20285;-65
2021/12/22 09:23:42;;;;;;;25.17;5.60;;;0.30;99.90;;;;;;5017694;28;20229;-65
2021/12/22 09:26:07;;;;;;;25.63;5.47;;;0.30;99.90;;;;;;5021080;28;20228;-65
2021/12/22 09:28:34;;;;;;;56.50;11.20;;;0.40;99.90;;;;;;5010798;28;20696;-66
2021/12/22 09:31:00;;;;;;;29.17;6.33;;;0.50;99.90;;;;;;5013561;28;20219;-65
2021/12/22 09:33:26;;;;;;;59.80;11.57;;;0.40;99.90;;;;;;5011165;28;20575;-66
2021/12/22 09:35:53;;;;;;;22.57;4.90;;;0.60;99.90;;;;;;5014902;28;20184;-65
2021/12/22 09:38:19;;;;;;;19.90;4.80;;;0.50;99.90;;;;;;5018794;28;20188;-66
2021/12/22 09:40:46;;;;;;;18.17;4.37;;;0.60;99.90;;;;;;5016206;28;20232;-65
2021/12/22 09:43:12;;;;;;;26.80;5.93;;;0.60;99.90;;;;;;5018811;28;20275;-65
2021/12/22 09:45:48;;;;;;;18.87;4.60;;;0.80;99.90;;;;;;5017136;28;21044;-65
2021/12/22 09:52:15;;;;;;;21.63;5.10;;;0.70;99.90;;;;;;5019423;28;20208;-65
2021/12/22 09:53:43;;;;;;;20.97;4.83;;;0.50;99.90;;;;;;5015850;28;20535;-66
2021/12/22 09:56:10;;;;;;;25.13;5.60;;;0.70;99.90;;;;;;5013102;28;20191;-66
2021/12/22 09:58:39;;;;;;;27.07;5.87;;;0.70;99.90;;;;;;5031760;28;20181;-66
2021/12/22 10:01:05;;;;;;;14.50;3.77;;;0.80;99.90;;;;;;5017123;28;20214;-66
2021/12/22 10:03:31;;;;;;;29.60;6.57;;;0.90;99.90;;;;;;5019174;28;20188;-65
2021/12/22 10:05:57;;;;;;;18.63;4.43;;;0.80;99.90;;;;;;5017748;28;20630;-65
2021/12/22 10:08:24;;;;;;;16.60;4.10;;;0.90;99.90;;;;;;5017153;28;20207;-66
2021/12/22 10:11:01;;;;;;;18.37;4.37;;;0.90;99.90;;;;;;5019931;28;20396;-66
2021/12/22 10:13:29;;;;;;;39.10;8.23;;;1.70;99.90;;;;;;5013329;28;20191;-66
2021/12/22 10:15:56;;;;;;;21.23;5.03;;;;;;;;;;5020221;28;20192;-66
2021/12/22 10:18:26;;;;;;;16.57;4.00;;;;;;;;;;5021492;28;20263;-66
2021/12/22 10:21:07;;;;;;;20.53;4.10;;;1.90;94.90;;;;;;5043312;23;20238;-67
2021/12/22 10:23:33;;;;;;;30.30;5.80;;;1.10;96.60;;;;;;5014102;28;20185;-67
2021/12/22 10:26:04;;;;;;;22.07;4.27;;;1.20;95.10;;;;;;5008900;28;20187;-67
2021/12/22 10:28:49;;;;;;;27.10;5.27;;;1.20;94.20;;;;;;5008250;28;20212;-67
2021/12/22 10:31:15;;;;;;;30.20;5.77;;;1.10;94.10;;;;;;4991881;28;20202;-67
2021/12/22 10:33:44;;;;;;;26.07;5.07;;;1.30;82.80;;;;;;4976133;28;20185;-67
2021/12/22 10:36:13;;;;;;;21.70;4.33;;;1.20;88.00;;;;;;4982985;28;20178;-67
2021/12/22 10:38:47;;;;;;;18.67;3.83;;;1.40;72.60;;;;;;4980658;28;20184;-67
2021/12/22 10:41:14;;;;;;;27.33;5.30;;;1.30;73.80;;;;;;4963232;28;20213;-67
2021/12/22 10:43:45;;;;;;;35.17;6.67;;;1.00;70.30;;;;;;4976520;28;20197;-67
2021/12/22 10:46:21;;;;;;;27.90;5.33;;;1.40;69.70;;;;;;4981386;28;20186;-68
2021/12/22 10:51:37;;;;;;;26.10;5.07;;;1.30;62.20;;;;;;4979114;28;20730;-69
2021/12/22 10:54:08;;;;;;;28.70;5.60;;;1.20;62.50;;;;;;4978311;28;20243;-69
2021/12/22 10:56:37;;;;;;;29.13;5.53;;;1.50;49.20;;;;;;4976412;28;20264;-69
2021/12/22 10:59:08;;;;;;;26.73;5.17;;;1.50;50.40;;;;;;4978478;28;20191;-68
2021/12/22 11:01:36;;;;;;;46.93;8.57;;;1.50;45.90;;;;;;4961567;28;20205;-68
2021/12/22 11:04:05;;;;;;;35.43;6.50;;;1.50;42.30;;;;;;4980207;28;20220;-67
2021/12/22 11:06:33;;;;;;;35.47;6.57;;;1.80;32.30;;;;;;4976388;28;20218;-70
2021/12/22 11:09:10;;;;;;;15.57;3.23;;;1.60;29.80;;;;;;4964805;28;20197;-69
2021/12/22 11:11:47;;;;;;;19.40;3.80;;;1.70;38.80;;;;;;4983823;28;20613;-68
2021/12/22 11:14:25;;;;;;;17.17;3.53;;;1.80;22.00;;;;;;4980870;28;20193;-68
2021/12/22 11:16:53;;;;;;;14.90;3.13;;;1.70;10.60;;;;;;4982315;28;20256;-71
2021/12/22 11:19:20;;;;;;;33.97;6.40;;;1.70;5.00;;;;;;4961307;28;20186;-69
2021/12/22 11:22:14;;;;;;;28.13;5.27;;;2.00;56.50;;;;;;4967146;28;20256;-69
2021/12/22 11:24:46;;;;;;;30.87;5.90;;;2.00;58.30;;;;;;4959591;28;22887;-67
2021/12/22 11:27:15;;;;;;;52.00;9.40;;;2.30;71.00;;;;;;4974818;28;20301;-66
2021/12/22 11:29:45;;;;;;;25.57;4.87;;;2.40;64.30;;;;;;4975444;28;22177;-65
2021/12/22 11:32:13;;;;;;;33.95;6.10;;;;;;;;;;4958550;28;20436;-68
2021/12/22 11:34:40;;;;;;;25.70;5.00;;;2.00;1.00;;;;;;4975827;28;20303;-69
2021/12/22 11:37:09;;;;;;;19.60;4.00;;;2.00;1.00;;;;;;4976066;28;20686;-67
2021/12/22 11:39:34;;;;;;;26.47;5.13;;;2.10;1.00;;;;;;4978654;28;20277;-66
2021/12/22 11:42:07;;;;;;;40.58;7.25;;;2.10;1.00;;;;;;4976963;28;20515;-65
2021/12/22 11:44:33;;;;;;;28.70;6.40;;;2.20;1.00;;;;;;4961548;28;20328;-66
2021/12/22 11:47:16;;;;;;;31.77;7.10;;;2.10;1.00;;;;;;4952163;28;20201;-67
2021/12/22 11:49:57;;;;;;;25.17;5.77;;;2.10;1.00;;;;;;4955736;28;20241;-66
2021/12/22 11:52:58;;;;;;;22.83;5.13;;;2.30;1.00;;;;;;4979790;28;20229;-65
2021/12/22 11:55:36;;;;;;;25.13;5.83;;;2.30;1.00;;;;;;4976281;28;20541;-66
2021/12/22 11:58:25;;;;;;;16.60;4.07;;;2.40;1.00;;;;;;4982043;28;23433;-66
2021/12/22 12:00:53;;;;;;;13.93;3.43;;;2.60;1.00;;;;;;4981000;28;20200;-65
2021/12/22 12:03:31;;;;;;;32.60;7.50;;;2.60;1.00;;;;;;4963039;28;20304;-69
2021/12/22 12:06:11;;;;;;;29.17;6.67;;;2.50;1.00;;;;;;4980752;28;20197;-69
2021/12/22 12:08:44;;;;;;;23.30;5.50;;;2.60;1.00;;;;;;4977927;28;20204;-66
2021/12/22 12:11:14;;;;;;;17.60;4.30;;;2.50;1.00;;;;;;4978040;28;20200;-64
2021/12/22 12:14:00;;;;;;;12.50;3.27;;;2.70;1.00;;;;;;4979631;28;20253;-68
2021/12/22 12:22:34;;;;;;;15.27;3.77;;;2.80;1.00;;;;;;4977431;28;20224;-66
2021/12/22 12:25:22;;;;;;;13.20;3.33;;;2.80;1.00;;;;;;4977984;28;20204;-66
2021/12/22 12:27:53;;;;;;;12.37;3.10;;;2.70;1.00;;;;;;4984940;28;20182;-67
2021/12/22 12:30:25;;;;;;;11.40;2.80;;;2.90;1.00;;;;;;4983619;28;20201;-67
2021/12/22 12:32:51;;;;;;;15.03;3.70;;;2.60;1.00;;;;;;4976184;28;20174;-66
2021/12/22 12:35:23;;;;;;;14.07;3.57;;;3.00;99.90;;;;;;4978147;28;20174;-66
2021/12/22 12:38:00;;;;;;;25.63;5.73;;;3.00;99.90;;;;;;4979092;28;20201;-66
2021/12/22 12:40:54;;;;;;;11.87;3.07;;;3.10;99.90;;;;;;4963779;28;20201;-65
2021/12/22 12:43:40;;;;;;;26.03;6.13;;;3.40;99.90;;;;;;4980412;28;20190;-65
2021/12/22 12:46:34;;;;;;;23.60;5.60;;;2.70;99.90;;;;;;4982199;28;20198;-67
2021/12/22 12:49:03;;;;;;;13.37;3.47;;;3.40;30.60;;;;;;4965289;28;20256;-67
2021/12/22 12:51:34;;;;;;;35.10;8.10;;;3.10;99.90;;;;;;4978085;28;20216;-68
2021/12/22 12:54:00;;;;;;;19.33;4.73;;;3.30;99.90;;;;;;4975485;28;20556;-66
2021/12/22 12:56:39;;;;;;;19.97;4.90;;;3.20;99.90;;;;;;4982792;28;20190;-67
2021/12/22 12:59:08;;;;;;;21.67;5.13;;;3.00;1.00;;;;;;4982269;28;20185;-67
2021/12/22 13:04:20;;;;;;;32.53;7.60;;;3.90;99.90;;;;;;4980510;28;20185;-67
2021/12/22 13:06:46;;;;;;;18.13;4.47;;;3.40;99.90;;;;;;4962715;28;20189;-66
2021/12/22 13:09:27;;;;;;;19.07;4.57;;;3.60;99.90;;;;;;4967783;28;20200;-68
2021/12/22 13:11:58;;;;;;;11.80;3.10;;;3.80;80.90;;;;;;4963962;28;20197;-67
2021/12/22 13:17:17;;;;;;;69.20;12.80;;;;;;;;;;5013693;23;20660;-75
2021/12/22 13:19:44;;;;;;;32.03;7.70;;;3.80;1.00;;;;;;5002303;28;20218;-75
2021/12/22 13:22:20;;;;;;;65.77;14.97;;;3.80;1.00;;;;;;5009413;28;20238;-75
2021/12/22 13:24:47;;;;;;;13.57;3.53;;;;;;;;;;5013050;28;20183;-75
2021/12/22 13:27:26;;;;;;;15.97;4.03;;;3.90;1.00;;;;;;5004081;28;20195;-76